Time;durP1;ratioP1;P1;durP2;ratioP2;P2;SDS_P1;SDS_P2;PMS_P1;PMS_P2;Temp;Humidity;BMP_temperature;BMP_pressure;BME280_temperature;BME280_humidity;BME280_pressure;Samples;Min_cycle;Max_cycle;Signal;HPM_P1;HPM_P2
2020/12/19 00:01:31;;;;;;;24.23;14.47;;;;;;;1.24;95.20;100871.34;1827126;75;25708;-68
2020/12/19 00:04:13;;;;;;;24.93;16.20;;;;;;;1.27;95.69;100874.30;1817566;78;26896;-69
2020/12/19 00:06:47;;;;;;;25.10;15.80;;;;;;;1.28;95.50;100877.31;1764646;80;25636;-73
2020/12/19 00:09:21;;;;;;;25.97;17.10;;;;;;;1.28;95.27;100862.60;1763629;80;25253;-70
2020/12/19 00:11:51;;;;;;;26.53;16.37;;;;;;;1.36;95.45;100858.58;1764074;80;25355;-68
2020/12/19 00:14:19;;;;;;;24.03;15.60;;;;;;;1.40;95.41;100856.32;1789407;79;25691;-67
2020/12/19 00:16:46;;;;;;;28.17;17.10;;;;;;;1.35;95.38;100858.16;1789515;79;25224;-67
2020/12/19 00:19:16;;;;;;;23.53;14.90;;;;;;;1.38;95.26;100856.80;1790198;79;25253;-70
2020/12/19 00:21:51;;;;;;;21.63;14.43;;;;;;;1.39;95.37;100855.93;1763970;80;25232;-70
2020/12/19 00:24:33;;;;;;;25.30;16.27;;;;;;;1.42;95.28;100850.66;1812388;78;26874;-69
2020/12/19 00:27:15;;;;;;;28.83;17.50;;;;;;;1.38;95.19;100867.63;1741422;79;25063;-71
2020/12/19 00:29:48;;;;;;;23.13;15.37;;;;;;;1.42;95.10;100870.55;1798153;79;25277;-69
2020/12/19 00:32:27;;;;;;;22.27;15.23;;;;;;;1.47;95.08;100874.78;1763030;79;25763;-70
2020/12/19 00:34:59;;;;;;;25.50;16.17;;;;;;;1.41;95.03;100864.52;1797668;79;25296;-70
2020/12/19 00:37:26;;;;;;;26.03;16.37;;;;;;;1.42;94.96;100870.55;1797218;79;25716;-69
2020/12/19 00:39:52;;;;;;;25.43;15.33;;;;;;;1.45;95.06;100864.86;1797324;79;25324;-69
2020/12/19 00:42:24;;;;;;;23.47;14.70;;;;;;;1.48;95.01;100865.26;1797436;79;25434;-71
2020/12/19 00:44:56;;;;;;;23.53;15.23;;;;;;;1.46;95.09;100872.22;1797993;79;25330;-71
2020/12/19 00:47:27;;;;;;;22.10;13.93;;;;;;;1.46;94.95;100868.33;1797066;79;25135;-69
2020/12/19 00:49:57;;;;;;;21.50;14.07;;;;;;;1.43;94.87;100858.86;1797404;79;25628;-70
2020/12/19 00:52:25;;;;;;;25.97;15.00;;;;;;;1.40;94.84;100861.51;1795605;79;25249;-70
2020/12/19 00:54:53;;;;;;;23.10;14.83;;;;;;;1.41;95.04;100858.05;1795925;79;25672;-69
2020/12/19 00:57:30;;;;;;;20.03;13.10;;;;;;;1.38;95.02;100866.33;1795647;79;25170;-73
2020/12/19 00:59:59;;;;;;;23.37;15.83;;;;;;;1.40;94.96;100873.17;1794753;79;25667;-68
2020/12/19 01:02:46;;;;;;;22.83;14.30;;;;;;;1.45;95.07;100879.12;1795410;79;25209;-69
2020/12/19 01:05:15;;;;;;;21.63;14.10;;;;;;;1.45;94.95;100873.94;1767493;80;25314;-74
2020/12/19 01:07:46;;;;;;;20.53;13.07;;;;;;;1.41;94.86;100869.70;1795266;79;25342;-69
2020/12/19 01:10:15;;;;;;;22.97;13.57;;;;;;;1.42;94.83;100866.21;1795229;79;25724;-68
2020/12/19 01:12:41;;;;;;;21.93;14.00;;;;;;;1.40;94.97;100860.20;1795226;80;25343;-67
2020/12/19 01:15:08;;;;;;;20.43;13.77;;;;;;;1.43;94.86;100851.53;1795280;79;25324;-67
2020/12/19 01:17:35;;;;;;;22.63;13.67;;;;;;;1.45;94.88;100844.12;1795295;80;25253;-67
2020/12/19 01:20:02;;;;;;;21.83;14.13;;;;;;;1.50;94.92;100853.56;1795232;79;25288;-70
2020/12/19 01:22:29;;;;;;;21.93;13.73;;;;;;;1.53;94.90;100850.45;1793722;79;25297;-69
2020/12/19 01:24:56;;;;;;;20.67;13.10;;;;;;;1.57;94.91;100852.09;1775615;80;25302;-68
2020/12/19 01:27:22;;;;;;;18.17;13.40;;;;;;;1.62;94.86;100852.84;1775620;80;25329;-68
2020/12/19 01:29:49;;;;;;;17.67;11.33;;;;;;;1.56;94.63;100854.28;1775484;80;25321;-69
2020/12/19 01:32:16;;;;;;;17.20;12.17;;;;;;;1.57;94.67;100854.67;1775530;80;25380;-67
2020/12/19 01:34:42;;;;;;;17.73;12.43;;;;;;;1.56;94.53;100849.10;1775180;80;25277;-68
2020/12/19 01:37:09;;;;;;;16.63;11.60;;;;;;;1.57;94.61;100839.57;1774941;80;25679;-68
2020/12/19 01:39:36;;;;;;;19.23;13.17;;;;;;;1.57;94.55;100833.09;1775100;80;25207;-68
2020/12/19 01:42:03;;;;;;;19.40;12.37;;;;;;;1.57;94.57;100832.64;1775034;80;25380;-67
2020/12/19 01:44:30;;;;;;;17.57;12.53;;;;;;;1.59;94.57;100828.30;1775070;80;25701;-68
2020/12/19 01:46:59;;;;;;;19.63;12.77;;;;;;;1.54;94.37;100815.84;1774806;80;25285;-68
2020/12/19 01:49:28;;;;;;;18.10;12.27;;;;;;;1.55;94.42;100826.63;1773946;80;25676;-68
2020/12/19 01:52:02;;;;;;;20.20;13.30;;;;;;;1.53;94.39;100813.31;1774978;80;25706;-67
2020/12/19 01:54:29;;;;;;;18.83;12.57;;;;;;;1.51;94.45;100817.65;1773915;80;25792;-68
2020/12/19 01:56:58;;;;;;;15.70;9.97;;;;;;;1.53;94.38;100818.50;1774914;80;25331;-67
2020/12/19 01:59:27;;;;;;;16.33;11.23;;;;;;;1.57;94.47;100822.72;1774959;80;25418;-68
2020/12/19 02:01:56;;;;;;;18.10;11.00;;;;;;;1.54;94.39;100817.59;1775108;80;25274;-67
2020/12/19 02:04:24;;;;;;;18.80;12.47;;;;;;;1.51;94.43;100825.01;1774998;80;25851;-68
2020/12/19 02:06:57;;;;;;;17.10;11.97;;;;;;;1.53;94.37;100820.64;1775072;80;25707;-67
2020/12/19 02:09:27;;;;;;;20.87;12.87;;;;;;;1.54;94.39;100818.89;1775082;80;25344;-67
2020/12/19 02:11:54;;;;;;;19.07;13.33;;;;;;;1.56;94.37;100816.69;1747152;80;25354;-67
2020/12/19 02:14:21;;;;;;;17.23;12.27;;;;;;;1.63;94.50;100818.70;1775045;80;25294;-67
2020/12/19 02:17:02;;;;;;;19.07;12.80;;;;;;;1.60;94.40;100819.61;1775062;80;25207;-68
2020/12/19 02:19:29;;;;;;;15.60;10.63;;;;;;;1.61;94.40;100816.56;1746875;80;25736;-69
2020/12/19 02:21:56;;;;;;;16.53;11.50;;;;;;;1.59;94.43;100810.56;1774908;80;25715;-67
2020/12/19 02:24:23;;;;;;;13.40;9.00;;;;;;;1.55;94.53;100797.27;1782869;80;25692;-67
2020/12/19 02:26:52;;;;;;;15.40;10.33;;;;;;;1.51;94.56;100797.78;1786280;80;25281;-67
2020/12/19 02:29:20;;;;;;;15.80;10.93;;;;;;;1.51;94.48;100792.59;1786391;80;25321;-67
2020/12/19 02:31:47;;;;;;;15.53;11.10;;;;;;;1.50;94.44;100785.69;1786349;80;25217;-68
2020/12/19 02:34:14;;;;;;;15.37;10.93;;;;;;;1.50;94.36;100787.44;1786207;80;25067;-67
2020/12/19 02:36:40;;;;;;;18.33;12.07;;;;;;;1.51;94.39;100790.42;1753431;80;25096;-68
2020/12/19 02:39:07;;;;;;;16.10;11.00;;;;;;;1.52;94.41;100790.84;1786252;80;25624;-67
2020/12/19 02:41:40;;;;;;;14.70;10.10;;;;;;;1.48;94.68;100789.61;1786362;80;25225;-67
2020/12/19 02:44:09;;;;;;;14.60;10.60;;;;;;;1.52;94.54;100790.84;1785808;80;25304;-68
2020/12/19 02:46:35;;;;;;;14.07;9.93;;;;;;;1.52;94.35;100787.80;1786181;80;25282;-67
2020/12/19 02:49:03;;;;;;;13.13;9.43;;;;;;;1.53;94.39;100777.85;1786086;80;25561;-68
2020/12/19 02:51:29;;;;;;;12.97;9.43;;;;;;;1.51;94.30;100775.74;1786322;79;25332;-68
2020/12/19 02:53:57;;;;;;;11.30;8.60;;;;;;;1.50;94.30;100773.18;1786325;80;25700;-69
2020/12/19 02:56:24;;;;;;;13.53;10.10;;;;;;;1.51;94.19;100763.20;1786417;80;25304;-68
2020/12/19 02:58:50;;;;;;;13.33;9.93;;;;;;;1.48;94.17;100766.73;1786145;80;25817;-68
2020/12/19 03:01:17;;;;;;;13.40;9.97;;;;;;;1.46;94.14;100769.36;1786189;80;25281;-68
2020/12/19 03:03:43;;;;;;;13.73;10.00;;;;;;;1.45;94.09;100759.86;1786185;80;25610;-68
2020/12/19 03:06:11;;;;;;;11.63;8.40;;;;;;;1.43;94.08;100749.97;1786206;80;25209;-69
2020/12/19 03:08:37;;;;;;;11.83;9.03;;;;;;;1.41;94.11;100749.16;1786220;80;25278;-68
2020/12/19 03:11:04;;;;;;;14.23;9.33;;;;;;;1.40;94.10;100755.22;1786258;80;25490;-68
2020/12/19 03:13:30;;;;;;;12.17;9.60;;;;;;;1.41;94.00;100749.61;1786241;80;25229;-68
2020/12/19 03:15:57;;;;;;;10.63;9.03;;;;;;;1.38;93.95;100746.63;1786371;80;25690;-67
2020/12/19 03:18:24;;;;;;;13.30;9.23;;;;;;;1.37;93.90;100746.20;1786378;80;25225;-67
2020/12/19 03:20:50;;;;;;;12.37;9.23;;;;;;;1.37;93.95;100743.61;1786213;80;25150;-67
2020/12/19 03:23:17;;;;;;;12.53;9.57;;;;;;;1.39;93.94;100751.36;1784764;80;25079;-67
2020/12/19 03:25:44;;;;;;;10.83;8.40;;;;;;;1.38;93.89;100745.33;1774882;80;25218;-67
2020/12/19 03:28:11;;;;;;;12.47;8.50;;;;;;;1.38;93.81;100749.22;1746841;80;25199;-67
2020/12/19 03:30:38;;;;;;;11.60;8.63;;;;;;;1.32;93.78;100745.45;1775021;80;25222;-68
2020/12/19 03:33:05;;;;;;;11.57;8.43;;;;;;;1.27;93.76;100739.52;1774963;80;25617;-67
2020/12/19 03:35:33;;;;;;;12.00;8.77;;;;;;;1.24;93.70;100738.28;1775105;80;25293;-68
2020/12/19 03:38:01;;;;;;;11.13;7.57;;;;;;;1.19;93.63;100742.29;1775013;80;25301;-67
2020/12/19 03:40:28;;;;;;;12.67;9.33;;;;;;;1.15;93.56;100740.62;1774910;80;25253;-68
2020/12/19 03:42:54;;;;;;;10.60;8.37;;;;;;;1.11;93.64;100737.25;1774953;80;25160;-68
2020/12/19 03:45:21;;;;;;;11.67;8.27;;;;;;;1.08;93.47;100742.95;1774911;80;25664;-67
2020/12/19 03:47:48;;;;;;;10.53;8.13;;;;;;;0.99;93.37;100740.53;1774934;80;25226;-67
2020/12/19 03:50:14;;;;;;;13.67;9.10;;;;;;;0.93;93.37;100735.88;1774836;80;25653;-68
2020/12/19 03:52:43;;;;;;;10.90;7.90;;;;;;;0.87;93.48;100737.74;1774924;80;25115;-67
2020/12/19 03:55:10;;;;;;;11.70;8.90;;;;;;;0.84;93.55;100737.80;1774811;80;25294;-68
2020/12/19 03:57:36;;;;;;;12.50;9.23;;;;;;;0.79;93.46;100740.50;1774970;80;25321;-67
2020/12/19 04:00:05;;;;;;;13.07;8.63;;;;;;;0.74;93.39;100733.27;1774992;80;25285;-68
2020/12/19 04:02:35;;;;;;;10.43;7.67;;;;;;;0.70;93.35;100728.59;1774132;80;25736;-68
2020/12/19 04:05:04;;;;;;;11.27;8.97;;;;;;;0.63;93.40;100734.74;1774898;80;25211;-68
2020/12/19 04:07:30;;;;;;;10.73;7.83;;;;;;;0.62;93.47;100722.70;1774824;80;25208;-68
2020/12/19 04:09:57;;;;;;;13.77;9.13;;;;;;;0.58;93.55;100718.45;1774921;80;25693;-68
2020/12/19 04:12:23;;;;;;;11.33;8.50;;;;;;;0.54;93.48;100729.76;1774931;80;25250;-67
2020/12/19 04:14:50;;;;;;;11.70;9.03;;;;;;;0.50;93.50;100728.09;1774937;80;25720;-68
2020/12/19 04:17:16;;;;;;;11.10;8.40;;;;;;;0.48;93.56;100727.27;1774931;80;25230;-68
2020/12/19 04:19:43;;;;;;;12.07;8.90;;;;;;;0.46;93.58;100729.88;1775001;80;25214;-67
2020/12/19 04:22:10;;;;;;;11.00;8.90;;;;;;;0.39;93.61;100738.65;1774801;80;25302;-68
2020/12/19 04:24:36;;;;;;;12.07;8.60;;;;;;;0.36;93.63;100735.66;1775020;80;25313;-67
2020/12/19 04:27:03;;;;;;;10.97;8.57;;;;;;;0.33;93.64;100737.00;1774792;80;25713;-68
2020/12/19 04:29:31;;;;;;;11.47;8.80;;;;;;;0.29;93.69;100728.05;1775029;80;25364;-68
2020/12/19 04:31:59;;;;;;;11.73;8.47;;;;;;;0.27;93.67;100724.61;1774879;80;25264;-67
2020/12/19 04:34:26;;;;;;;14.13;10.57;;;;;;;0.23;93.76;100731.58;1774834;80;25056;-67
2020/12/19 04:36:52;;;;;;;14.83;10.77;;;;;;;0.23;93.96;100727.70;1774929;80;25135;-68
2020/12/19 04:39:19;;;;;;;15.37;11.60;;;;;;;0.23;93.93;100730.73;1774867;80;25222;-67
2020/12/19 04:41:46;;;;;;;12.83;9.93;;;;;;;0.23;94.03;100731.58;1774830;80;25636;-67
2020/12/19 04:44:13;;;;;;;14.40;11.10;;;;;;;0.23;93.98;100732.88;1775000;80;25153;-67
2020/12/19 04:46:41;;;;;;;12.37;9.93;;;;;;;0.23;94.00;100726.41;1774882;80;25278;-68
2020/12/19 04:49:08;;;;;;;12.03;9.30;;;;;;;0.24;94.07;100732.01;1774946;80;25072;-67
2020/12/19 04:51:35;;;;;;;12.03;8.83;;;;;;;0.26;94.15;100739.30;1774726;80;25135;-67
2020/12/19 04:54:03;;;;;;;12.67;9.60;;;;;;;0.25;94.29;100725.96;1774767;80;25286;-68
2020/12/19 04:56:30;;;;;;;11.77;8.83;;;;;;;0.25;94.36;100731.14;1774942;80;25261;-69
2020/12/19 04:58:59;;;;;;;12.13;9.23;;;;;;;0.25;94.29;100725.96;1774812;80;25594;-68
2020/12/19 05:01:25;;;;;;;11.93;9.17;;;;;;;0.28;94.52;100729.77;1774830;80;25139;-67
2020/12/19 05:03:54;;;;;;;12.13;9.23;;;;;;;0.32;94.63;100735.77;1774705;80;25719;-67
2020/12/19 05:06:27;;;;;;;14.50;10.10;;;;;;;0.34;94.67;100733.55;1774872;80;25087;-67
2020/12/19 05:08:56;;;;;;;11.13;8.80;;;;;;;0.36;94.54;100733.07;1774471;80;25131;-67
2020/12/19 05:11:25;;;;;;;10.37;7.83;;;;;;;0.42;94.75;100736.02;1774156;80;25681;-67
2020/12/19 05:13:52;;;;;;;12.50;9.33;;;;;;;0.43;94.85;100731.68;1775073;80;25309;-68
2020/12/19 05:16:19;;;;;;;10.80;8.67;;;;;;;0.44;94.81;100736.83;1774878;80;25222;-68
2020/12/19 05:18:45;;;;;;;12.03;9.07;;;;;;;0.45;94.74;100737.22;1774915;80;25155;-68
2020/12/19 05:21:12;;;;;;;11.27;9.40;;;;;;;0.51;94.85;100745.34;1775018;80;25653;-68
2020/12/19 05:23:44;;;;;;;11.73;8.83;;;;;;;0.54;94.89;100747.88;1775083;80;25511;-68
2020/12/19 05:26:12;;;;;;;11.23;8.33;;;;;;;0.55;94.89;100749.56;1774927;80;25079;-70
2020/12/19 05:28:42;;;;;;;13.20;9.30;;;;;;;0.59;94.91;100743.88;1774988;80;25245;-68
2020/12/19 05:31:11;;;;;;;11.70;8.50;;;;;;;0.57;94.86;100741.36;1775009;80;25585;-68
2020/12/19 05:33:42;;;;;;;11.57;8.87;;;;;;;0.61;94.93;100737.81;1774491;80;25344;-68
2020/12/19 05:36:20;;;;;;;10.97;7.93;;;;;;;0.63;94.95;100729.56;1775139;80;25301;-69
2020/12/19 05:38:47;;;;;;;11.93;8.83;;;;;;;0.64;94.83;100724.81;1775046;80;25265;-67
2020/12/19 05:41:14;;;;;;;12.23;9.47;;;;;;;0.67;94.81;100725.17;1774925;80;25206;-67
2020/12/19 05:43:51;;;;;;;12.47;9.43;;;;;;;0.69;94.87;100733.34;1774919;80;25314;-69
2020/12/19 05:46:32;;;;;;;11.20;8.43;;;;;;;0.72;94.90;100737.17;1774989;80;25738;-67
2020/12/19 05:49:00;;;;;;;10.10;8.50;;;;;;;0.77;94.84;100736.22;1775008;80;25167;-67
2020/12/19 05:51:28;;;;;;;12.03;9.07;;;;;;;0.76;94.74;100735.83;1775018;80;25324;-68
2020/12/19 05:54:03;;;;;;;10.83;8.10;;;;;;;0.75;94.72;100732.36;1774840;80;25637;-68
2020/12/19 05:56:29;;;;;;;10.63;8.53;;;;;;;0.75;94.76;100736.25;1747322;80;25126;-67
2020/12/19 05:58:56;;;;;;;13.53;9.90;;;;;;;0.77;94.71;100732.33;1775035;80;25629;-68
2020/12/19 06:01:22;;;;;;;12.83;9.53;;;;;;;0.78;94.81;100738.78;1775109;80;25123;-67
2020/12/19 06:03:50;;;;;;;11.80;8.47;;;;;;;0.79;94.76;100736.61;1774993;80;25266;-68
2020/12/19 06:06:18;;;;;;;15.90;9.70;;;;;;;0.80;94.98;100738.75;1747429;80;25131;-69
2020/12/19 06:08:44;;;;;;;13.30;9.03;;;;;;;0.82;94.83;100737.86;1775019;80;25155;-68
2020/12/19 06:11:15;;;;;;;13.10;8.73;;;;;;;0.87;94.93;100737.74;1746896;80;25209;-69
2020/12/19 06:13:46;;;;;;;13.53;9.60;;;;;;;0.90;94.86;100744.16;1775019;80;25151;-68
2020/12/19 06:16:13;;;;;;;10.40;8.20;;;;;;;0.88;94.77;100740.30;1747246;80;25236;-68
2020/12/19 06:19:03;;;;;;;10.50;8.53;;;;;;;0.89;94.75;100743.32;1774970;80;25159;-68
2020/12/19 06:21:29;;;;;;;14.77;9.83;;;;;;;0.91;94.76;100743.29;1774982;80;25380;-68
2020/12/19 06:23:56;;;;;;;12.47;9.20;;;;;;;0.96;94.78;100745.34;1774971;80;25218;-68
2020/12/19 06:26:35;;;;;;;12.07;8.47;;;;;;;0.96;94.65;100740.16;1785957;80;25269;-67
2020/12/19 06:29:03;;;;;;;11.67;9.13;;;;;;;0.91;94.56;100730.34;1786319;80;25123;-68
2020/12/19 06:31:29;;;;;;;15.77;10.27;;;;;;;0.86;94.42;100729.58;1786187;80;25226;-68
2020/12/19 06:33:56;;;;;;;11.90;9.00;;;;;;;0.80;94.46;100729.69;1786274;80;25059;-68
2020/12/19 06:36:27;;;;;;;15.47;10.87;;;;;;;0.73;94.33;100724.63;1728497;80;25158;-68
2020/12/19 06:39:11;;;;;;;13.73;9.80;;;;;;;0.68;94.31;100726.45;1786465;80;25060;-68
2020/12/19 06:41:52;;;;;;;11.67;9.10;;;;;;;0.61;94.21;100720.98;1786370;80;25075;-68
2020/12/19 06:44:31;;;;;;;14.03;10.43;;;;;;;0.52;94.31;100727.19;1784124;78;25166;-68
2020/12/19 06:47:01;;;;;;;12.33;9.53;;;;;;;0.50;94.23;100725.50;1786318;80;25072;-67
2020/12/19 06:49:31;;;;;;;15.70;12.17;;;;;;;0.42;94.53;100736.02;1786415;80;25067;-67
2020/12/19 06:52:11;;;;;;;15.03;11.60;;;;;;;0.39;94.29;100724.83;1786249;79;25166;-68
2020/12/19 06:54:43;;;;;;;16.47;11.60;;;;;;;0.36;94.36;100724.02;1786276;80;25225;-68
2020/12/19 06:57:28;;;;;;;15.87;11.97;;;;;;;0.34;94.29;100733.55;1786219;80;25150;-68
2020/12/19 06:59:55;;;;;;;17.00;11.67;;;;;;;0.33;94.25;100730.98;1786278;80;25115;-68
2020/12/19 07:02:23;;;;;;;13.73;10.53;;;;;;;0.32;94.34;100744.83;1753679;80;25505;-68
2020/12/19 07:04:50;;;;;;;15.73;11.30;;;;;;;0.33;94.28;100745.22;1753330;80;25510;-68
2020/12/19 07:07:26;;;;;;;15.17;11.50;;;;;;;0.31;94.25;100743.95;1786189;80;25186;-68
2020/12/19 07:09:58;;;;;;;14.17;10.67;;;;;;;0.31;94.30;100738.77;1786263;80;25138;-66
2020/12/19 07:12:37;;;;;;;14.77;10.73;;;;;;;0.31;94.26;100746.53;1786150;80;25557;-68
2020/12/19 07:15:08;;;;;;;12.73;10.13;;;;;;;0.30;94.23;100751.73;1786214;80;25225;-68
2020/12/19 07:17:49;;;;;;;13.03;9.50;;;;;;;0.30;94.36;100747.86;1786364;80;25348;-68
2020/12/19 07:20:22;;;;;;;13.93;9.37;;;;;;;0.32;94.41;100750.00;1786289;80;25063;-69
2020/12/19 07:22:50;;;;;;;15.40;9.77;;;;;;;0.32;94.36;100737.06;1786074;80;25090;-68
2020/12/19 07:25:18;;;;;;;13.73;9.93;;;;;;;0.31;94.30;100742.66;1781983;80;25057;-68
2020/12/19 07:27:44;;;;;;;11.67;9.57;;;;;;;0.32;94.40;100738.36;1775038;80;25585;-68
2020/12/19 07:30:11;;;;;;;13.80;10.07;;;;;;;0.34;94.49;100737.88;1774880;80;25720;-69
2020/12/19 07:32:38;;;;;;;13.43;10.33;;;;;;;0.35;94.53;100736.56;1774929;80;25158;-67
2020/12/19 07:35:05;;;;;;;15.43;9.90;;;;;;;0.40;94.57;100742.08;1774900;80;25187;-68
2020/12/19 07:37:33;;;;;;;12.20;9.47;;;;;;;0.44;94.46;100743.75;1746848;80;25679;-68
2020/12/19 07:40:06;;;;;;;13.97;10.20;;;;;;;0.46;94.49;100748.45;1775013;80;25312;-68
2020/12/19 07:42:33;;;;;;;14.60;9.33;;;;;;;0.50;94.48;100735.85;1773902;80;25190;-69
2020/12/19 07:45:00;;;;;;;11.37;8.57;;;;;;;0.55;94.50;100732.73;1774851;80;25344;-69
2020/12/19 07:47:26;;;;;;;10.33;8.50;;;;;;;0.57;94.46;100734.88;1774821;80;25257;-68
2020/12/19 07:49:54;;;;;;;13.33;9.30;;;;;;;0.61;94.54;100732.63;1774910;80;25544;-67
2020/12/19 07:52:25;;;;;;;9.13;7.60;;;;;;;0.65;94.50;100739.45;1746784;80;25144;-68
2020/12/19 07:55:03;;;;;;;9.63;7.97;;;;;;;0.67;94.67;100732.95;1775061;80;25273;-69
2020/12/19 07:57:32;;;;;;;10.50;8.33;;;;;;;0.69;94.45;100733.34;1774895;80;25273;-68
2020/12/19 08:00:03;;;;;;;10.20;7.47;;;;;;;0.73;94.48;100738.86;1774897;80;25167;-68
2020/12/19 08:02:37;;;;;;;11.00;7.87;;;;;;;0.83;94.61;100730.93;1774857;80;25158;-68
2020/12/19 08:05:03;;;;;;;12.60;8.33;;;;;;;0.86;94.50;100733.47;1748083;80;25138;-68
2020/12/19 08:07:30;;;;;;;15.00;10.27;;;;;;;0.87;94.66;100733.44;1775002;80;25147;-68
2020/12/19 08:10:13;;;;;;;15.47;11.93;;;;;;;0.89;94.59;100728.23;1774962;80;25068;-68
2020/12/19 08:12:40;;;;;;;16.27;10.30;;;;;;;0.90;94.51;100729.91;1774883;80;25187;-68
2020/12/19 08:15:20;;;;;;;21.80;14.97;;;;;;;0.93;94.69;100728.56;1774917;80;25199;-68
2020/12/19 08:17:52;;;;;;;18.73;11.70;;;;;;;0.95;94.71;100734.56;1775022;80;25076;-68
2020/12/19 08:20:23;;;;;;;14.87;9.90;;;;;;;0.98;94.67;100738.84;1747032;80;25075;-68
2020/12/19 08:22:50;;;;;;;11.17;8.30;;;;;;;0.99;94.62;100734.05;1774954;80;25301;-68
2020/12/19 08:25:17;;;;;;;9.00;7.73;;;;;;;1.04;94.81;100739.57;1777448;80;25099;-69
2020/12/19 08:27:45;;;;;;;9.03;6.80;;;;;;;1.08;94.70;100742.49;1786209;80;25213;-68
2020/12/19 08:30:29;;;;;;;9.10;7.37;;;;;;;1.11;94.66;100750.20;1754067;80;25333;-68
2020/12/19 08:33:07;;;;;;;9.83;7.73;;;;;;;1.15;94.69;100744.97;1786198;80;25301;-69
2020/12/19 08:35:41;;;;;;;8.13;6.73;;;;;;;1.20;94.66;100749.61;1786240;80;25137;-69
2020/12/19 08:38:15;;;;;;;9.57;7.97;;;;;;;1.25;94.67;100740.00;1786184;80;25174;-69
2020/12/19 08:40:48;;;;;;;8.67;7.17;;;;;;;1.27;94.61;100744.70;1782360;80;25700;-68
2020/12/19 08:43:16;;;;;;;9.73;7.63;;;;;;;1.34;94.67;100735.05;1786286;80;25075;-70
2020/12/19 08:45:45;;;;;;;10.27;8.30;;;;;;;1.39;94.70;100741.86;1786386;80;25159;-67
2020/12/19 08:48:24;;;;;;;9.30;7.73;;;;;;;1.48;94.68;100751.17;1753934;80;25171;-69
2020/12/19 08:50:52;;;;;;;9.00;7.27;;;;;;;1.54;94.63;100750.17;1786341;79;25577;-68
2020/12/19 08:53:26;;;;;;;8.10;6.83;;;;;;;1.61;94.67;100744.83;1786344;80;25660;-68
2020/12/19 08:55:56;;;;;;;7.33;6.60;;;;;;;1.67;94.54;100741.23;1786426;80;25617;-68
2020/12/19 08:58:28;;;;;;;7.83;7.03;;;;;;;1.73;94.48;100747.58;1786589;80;25397;-67
2020/12/19 09:00:57;;;;;;;9.20;7.80;;;;;;;1.80;94.43;100755.62;1786600;80;25375;-69
2020/12/19 09:03:32;;;;;;;8.40;7.37;;;;;;;1.85;94.42;100746.44;1786431;80;25091;-67
2020/12/19 09:06:07;;;;;;;10.03;6.97;;;;;;;1.92;94.36;100743.26;1786391;80;25142;-68
2020/12/19 09:08:43;;;;;;;10.57;7.93;;;;;;;1.98;94.27;100753.50;1786481;80;25202;-68
2020/12/19 09:11:28;;;;;;;9.13;7.93;;;;;;;2.02;94.16;100746.03;1786410;80;25158;-69
2020/12/19 09:14:13;;;;;;;9.27;8.00;;;;;;;2.09;94.20;100747.58;1786460;80;25068;-70
2020/12/19 09:16:51;;;;;;;10.10;8.53;;;;;;;2.16;94.08;100743.97;1786287;80;25339;-67
2020/12/19 09:19:19;;;;;;;9.57;7.97;;;;;;;2.20;93.95;100745.58;1786626;80;25314;-67
2020/12/19 09:22:00;;;;;;;9.70;8.07;;;;;;;2.25;93.81;100733.79;1753501;80;25281;-68
2020/12/19 09:24:28;;;;;;;9.33;7.87;;;;;;;2.31;93.73;100740.55;1786686;80;25070;-68
2020/12/19 09:26:55;;;;;;;10.30;8.00;;;;;;;2.35;93.58;100731.81;1786579;80;25079;-66
2020/12/19 09:29:22;;;;;;;10.00;8.03;;;;;;;2.38;93.50;100734.30;1786352;80;25094;-68
2020/12/19 09:31:49;;;;;;;8.60;6.80;;;;;;;2.44;93.54;100728.13;1786638;80;25412;-69
2020/12/19 09:34:17;;;;;;;9.97;7.67;;;;;;;2.49;93.35;100725.80;1786890;80;25134;-67
2020/12/19 09:36:45;;;;;;;9.83;7.30;;;;;;;2.49;93.09;100721.90;1753588;80;25590;-67
2020/12/19 09:39:13;;;;;;;13.17;7.23;;;;;;;2.55;92.94;100715.70;1754001;80;25190;-68
2020/12/19 09:41:42;;;;;;;9.63;7.23;;;;;;;2.60;92.94;100717.27;1756951;80;25345;-69
2020/12/19 09:44:09;;;;;;;10.13;8.20;;;;;;;2.60;92.58;100706.89;1786461;80;25194;-68
2020/12/19 09:46:36;;;;;;;11.53;8.17;;;;;;;2.68;92.75;100711.88;1786592;80;25588;-67
2020/12/19 09:49:08;;;;;;;21.07;14.37;;;;;;;2.75;92.74;100709.52;1786353;80;25326;-69
2020/12/19 09:51:35;;;;;;;10.17;8.03;;;;;;;2.79;92.23;100699.88;1786264;79;25068;-68
2020/12/19 09:54:03;;;;;;;8.80;7.20;;;;;;;2.84;92.19;100698.00;1786300;80;25131;-67
2020/12/19 09:56:38;;;;;;;9.50;7.80;;;;;;;2.87;92.17;100701.81;1786198;80;25585;-67
2020/12/19 09:59:05;;;;;;;10.73;8.23;;;;;;;2.93;92.17;100698.17;1786320;80;25071;-67
2020/12/19 10:01:32;;;;;;;10.27;7.33;;;;;;;3.00;91.98;100704.92;1786234;80;25692;-68
2020/12/19 10:03:59;;;;;;;7.87;6.27;;;;;;;3.07;91.66;100703.00;1753933;80;25206;-69
2020/12/19 10:06:26;;;;;;;8.80;6.73;;;;;;;3.07;91.03;100701.70;1786452;80;25285;-70
2020/12/19 10:08:57;;;;;;;9.17;6.30;;;;;;;3.14;91.05;100700.16;1786856;80;25729;-68
2020/12/19 10:11:28;;;;;;;8.03;6.73;;;;;;;3.15;91.08;100696.67;1755268;80;25174;-68
2020/12/19 10:13:54;;;;;;;8.77;6.80;;;;;;;3.20;91.30;100698.27;1786596;80;25066;-67
2020/12/19 10:16:23;;;;;;;7.53;6.03;;;;;;;3.22;90.97;100696.03;1786633;80;25146;-70
2020/12/19 10:18:50;;;;;;;9.43;7.37;;;;;;;3.27;91.09;100691.55;1753965;80;25645;-67
2020/12/19 10:21:18;;;;;;;10.60;7.80;;;;;;;3.34;90.66;100690.91;1786585;80;25273;-69
2020/12/19 10:23:45;;;;;;;10.43;8.27;;;;;;;3.38;90.84;100691.67;1753829;80;25297;-67
2020/12/19 10:26:12;;;;;;;12.57;9.47;;;;;;;3.45;90.83;100685.37;1786505;80;25763;-70
2020/12/19 10:28:54;;;;;;;11.70;9.23;;;;;;;3.48;90.16;100683.52;1786915;80;25298;-69
2020/12/19 10:31:19;;;;;;;11.10;9.00;;;;;;;3.51;89.97;100679.52;1754395;80;25095;-68
2020/12/19 10:33:46;;;;;;;16.63;11.67;;;;;;;3.53;90.06;100684.22;1786880;80;25106;-69
2020/12/19 10:36:19;;;;;;;11.70;9.63;;;;;;;3.61;89.58;100683.99;1786430;80;25316;-68
2020/12/19 10:38:47;;;;;;;14.17;10.70;;;;;;;3.64;89.70;100679.16;1786041;80;25305;-69
2020/12/19 10:41:18;;;;;;;19.17;14.73;;;;;;;3.67;89.75;100677.30;1753704;80;25155;-70
2020/12/19 10:43:46;;;;;;;13.70;10.70;;;;;;;3.74;89.49;100675.78;1786658;80;25712;-71
2020/12/19 10:46:15;;;;;;;11.57;9.00;;;;;;;3.78;89.52;100680.00;1786260;80;25158;-68
2020/12/19 10:48:42;;;;;;;12.20;8.60;;;;;;;3.83;89.30;100670.29;1754175;80;25195;-68
2020/12/19 10:51:10;;;;;;;9.10;7.73;;;;;;;3.85;89.37;100671.08;1753776;80;25206;-69
2020/12/19 10:53:45;;;;;;;14.60;11.07;;;;;;;3.88;89.06;100667.92;1786358;80;25075;-70
2020/12/19 10:56:20;;;;;;;11.13;8.30;;;;;;;3.95;89.22;100662.06;1752708;80;25710;-69
2020/12/19 10:58:47;;;;;;;10.20;7.50;;;;;;;3.99;89.15;100663.67;1786468;80;25142;-68
2020/12/19 11:01:14;;;;;;;8.27;6.67;;;;;;;4.06;88.81;100665.62;1786257;80;25187;-67
2020/12/19 11:03:44;;;;;;;9.77;7.73;;;;;;;4.07;88.40;100662.97;1754218;80;25185;-68
2020/12/19 11:06:25;;;;;;;16.10;11.83;;;;;;;4.11;88.77;100662.41;1786335;80;25261;-68
2020/12/19 11:09:00;;;;;;;13.37;10.40;;;;;;;4.15;88.47;100664.45;1754665;80;25280;-68
2020/12/19 11:11:29;;;;;;;14.77;9.97;;;;;;;4.18;88.61;100661.75;1754415;80;25887;-68
2020/12/19 11:13:56;;;;;;;10.83;8.43;;;;;;;4.24;88.32;100657.61;1786292;80;25289;-68
2020/12/19 11:16:39;;;;;;;;;;;;;;;;;;;;;
2020/12/19 11:19:09;;;;;;;20.37;13.03;;;;;;;4.34;87.75;100656.84;1889311;75;26883;-67
2020/12/19 11:21:44;;;;;;;15.40;11.07;;;;;;;4.28;87.82;100650.95;1860442;77;25230;-69
2020/12/19 11:24:11;;;;;;;16.50;10.90;;;;;;;4.26;87.66;100655.83;1860075;77;25233;-69
2020/12/19 11:26:40;;;;;;;12.33;8.57;;;;;;;4.33;88.11;100648.19;1825615;77;25637;-69
2020/12/19 11:29:10;;;;;;;10.50;8.63;;;;;;;4.40;88.28;100650.96;1860080;77;25650;-68
2020/12/19 11:31:37;;;;;;;9.23;8.20;;;;;;;4.47;87.32;100648.98;1860214;77;25632;-66
2020/12/19 11:34:04;;;;;;;10.60;8.67;;;;;;;4.49;87.64;100650.23;1860286;77;25249;-67
2020/12/19 11:39:15;;;;;;;10.43;8.07;;;;;;;4.53;87.27;100637.52;1844971;76;26903;-70